sensor_id;sensor_type;location;lat;lon;timestamp;P1;durP1;ratioP1;P2;durP2;ratioP2
17151;SDS011;8691;50.828;4.700;2023-04-01T00:00:47;1.37;;;1.00;;
17151;SDS011;8691;50.828;4.700;2023-04-01T00:03:24;4.33;;;1.60;;
17151;SDS011;8691;50.828;4.700;2023-04-01T00:06:04;2.17;;;1.20;;
17151;SDS011;8691;50.828;4.700;2023-04-01T00:08:37;2.93;;;1.10;;
17151;SDS011;8691;50.828;4.700;2023-04-01T00:11:14;2.60;;;1.30;;
17151;SDS011;8691;50.828;4.700;2023-04-01T00:13:50;4.20;;;1.10;;
17151;SDS011;8691;50.828;4.700;2023-04-01T00:16:27;3.10;;;1.10;;
17151;SDS011;8691;50.828;4.700;2023-04-01T00:19:04;3.43;;;1.60;;
17151;SDS011;8691;50.828;4.700;2023-04-01T00:21:40;4.03;;;1.60;;
17151;SDS011;8691;50.828;4.700;2023-04-01T00:24:17;2.73;;;1.40;;
17151;SDS011;8691;50.828;4.700;2023-04-01T00:26:54;3.85;;;1.50;;
17151;SDS011;8691;50.828;4.700;2023-04-01T00:29:31;6.50;;;1.80;;
17151;SDS011;8691;50.828;4.700;2023-04-01T00:32:07;5.57;;;1.85;;
17151;SDS011;8691;50.828;4.700;2023-04-01T00:34:44;3.60;;;1.47;;
17151;SDS011;8691;50.828;4.700;2023-04-01T00:37:21;5.90;;;1.80;;
17151;SDS011;8691;50.828;4.700;2023-04-01T00:39:58;3.53;;;1.30;;
17151;SDS011;8691;50.828;4.700;2023-04-01T00:42:35;2.07;;;1.30;;
17151;SDS011;8691;50.828;4.700;2023-04-01T00:47:57;4.53;;;1.43;;
17151;SDS011;8691;50.828;4.700;2023-04-01T00:50:34;2.90;;;1.30;;
17151;SDS011;8691;50.828;4.700;2023-04-01T00:53:11;2.60;;;1.57;;
17151;SDS011;8691;50.828;4.700;2023-04-01T00:56:00;5.17;;;1.13;;
17151;SDS011;8691;50.828;4.700;2023-04-01T00:58:37;3.03;;;1.20;;
17151;SDS011;8691;50.828;4.700;2023-04-01T01:01:10;3.40;;;1.20;;
17151;SDS011;8691;50.828;4.700;2023-04-01T01:03:47;2.33;;;1.00;;
17151;SDS011;8691;50.828;4.700;2023-04-01T01:06:26;3.07;;;1.30;;
17151;SDS011;8691;50.828;4.700;2023-04-01T01:09:23;2.17;;;1.10;;
17151;SDS011;8691;50.828;4.700;2023-04-01T01:14:55;1.47;;;1.00;;
17151;SDS011;8691;50.828;4.700;2023-04-01T01:20:48;1.33;;;0.90;;
17151;SDS011;8691;50.828;4.700;2023-04-01T01:32:29;2.17;;;1.03;;
17151;SDS011;8691;50.828;4.700;2023-04-01T01:35:24;2.10;;;1.17;;
17151;SDS011;8691;50.828;4.700;2023-04-01T01:38:03;1.73;;;1.10;;
17151;SDS011;8691;50.828;4.700;2023-04-01T01:40:35;1.83;;;1.00;;
17151;SDS011;8691;50.828;4.700;2023-04-01T01:43:12;1.93;;;0.90;;
17151;SDS011;8691;50.828;4.700;2023-04-01T01:45:51;1.60;;;1.03;;
17151;SDS011;8691;50.828;4.700;2023-04-01T01:48:26;0.97;;;0.97;;
17151;SDS011;8691;50.828;4.700;2023-04-01T01:51:04;1.57;;;1.17;;
17151;SDS011;8691;50.828;4.700;2023-04-01T01:53:42;3.33;;;1.58;;
17151;SDS011;8691;50.828;4.700;2023-04-01T01:56:19;1.53;;;1.10;;
17151;SDS011;8691;50.828;4.700;2023-04-01T01:58:56;1.33;;;0.80;;
17151;SDS011;8691;50.828;4.700;2023-04-01T02:01:33;1.80;;;1.00;;
17151;SDS011;8691;50.828;4.700;2023-04-01T02:04:09;1.73;;;0.90;;
17151;SDS011;8691;50.828;4.700;2023-04-01T02:07:48;2.57;;;1.27;;
17151;SDS011;8691;50.828;4.700;2023-04-01T02:09:37;2.53;;;1.20;;
17151;SDS011;8691;50.828;4.700;2023-04-01T02:12:13;1.50;;;1.40;;
17151;SDS011;8691;50.828;4.700;2023-04-01T02:14:52;2.07;;;1.27;;
17151;SDS011;8691;50.828;4.700;2023-04-01T02:17:30;1.10;;;1.00;;
17151;SDS011;8691;50.828;4.700;2023-04-01T02:20:08;3.33;;;1.93;;
17151;SDS011;8691;50.828;4.700;2023-04-01T02:22:53;2.53;;;1.47;;
17151;SDS011;8691;50.828;4.700;2023-04-01T02:25:30;3.17;;;1.60;;
17151;SDS011;8691;50.828;4.700;2023-04-01T02:28:06;2.63;;;1.80;;
17151;SDS011;8691;50.828;4.700;2023-04-01T02:30:42;3.43;;;1.97;;
17151;SDS011;8691;50.828;4.700;2023-04-01T02:33:19;3.73;;;1.97;;
17151;SDS011;8691;50.828;4.700;2023-04-01T02:35:55;4.33;;;2.50;;
17151;SDS011;8691;50.828;4.700;2023-04-01T02:38:32;3.83;;;2.27;;
17151;SDS011;8691;50.828;4.700;2023-04-01T02:41:09;2.33;;;1.73;;
17151;SDS011;8691;50.828;4.700;2023-04-01T02:43:45;4.33;;;2.03;;
17151;SDS011;8691;50.828;4.700;2023-04-01T02:46:23;3.67;;;2.10;;
17151;SDS011;8691;50.828;4.700;2023-04-01T02:48:59;3.03;;;2.17;;
17151;SDS011;8691;50.828;4.700;2023-04-01T02:51:37;4.77;;;2.03;;
17151;SDS011;8691;50.828;4.700;2023-04-01T02:54:13;4.50;;;1.80;;
17151;SDS011;8691;50.828;4.700;2023-04-01T02:56:50;4.40;;;2.20;;
17151;SDS011;8691;50.828;4.700;2023-04-01T02:59:27;3.97;;;1.80;;
17151;SDS011;8691;50.828;4.700;2023-04-01T03:02:04;5.23;;;2.20;;
17151;SDS011;8691;50.828;4.700;2023-04-01T03:04:40;3.60;;;2.30;;
17151;SDS011;8691;50.828;4.700;2023-04-01T03:07:17;4.27;;;2.10;;
17151;SDS011;8691;50.828;4.700;2023-04-01T03:09:53;4.77;;;2.47;;
17151;SDS011;8691;50.828;4.700;2023-04-01T03:12:30;3.97;;;1.90;;
17151;SDS011;8691;50.828;4.700;2023-04-01T03:15:08;2.20;;;2.00;;
17151;SDS011;8691;50.828;4.700;2023-04-01T03:17:43;5.27;;;2.10;;
17151;SDS011;8691;50.828;4.700;2023-04-01T03:20:20;3.67;;;1.80;;
17151;SDS011;8691;50.828;4.700;2023-04-01T03:22:57;2.70;;;1.80;;
17151;SDS011;8691;50.828;4.700;2023-04-01T03:25:33;3.57;;;2.03;;
17151;SDS011;8691;50.828;4.700;2023-04-01T03:28:10;3.83;;;2.30;;
17151;SDS011;8691;50.828;4.700;2023-04-01T03:30:47;4.70;;;2.20;;
17151;SDS011;8691;50.828;4.700;2023-04-01T03:33:23;4.97;;;2.00;;
17151;SDS011;8691;50.828;4.700;2023-04-01T03:36:00;3.77;;;2.07;;
17151;SDS011;8691;50.828;4.700;2023-04-01T03:38:38;3.90;;;1.97;;
17151;SDS011;8691;50.828;4.700;2023-04-01T03:41:17;2.60;;;2.00;;
17151;SDS011;8691;50.828;4.700;2023-04-01T03:43:53;3.63;;;1.80;;
17151;SDS011;8691;50.828;4.700;2023-04-01T03:46:30;5.73;;;1.90;;
17151;SDS011;8691;50.828;4.700;2023-04-01T03:49:07;2.90;;;2.13;;
17151;SDS011;8691;50.828;4.700;2023-04-01T03:51:43;3.80;;;2.37;;
17151;SDS011;8691;50.828;4.700;2023-04-01T03:54:20;5.10;;;3.03;;
17151;SDS011;8691;50.828;4.700;2023-04-01T03:56:57;4.57;;;2.87;;
17151;SDS011;8691;50.828;4.700;2023-04-01T03:59:34;4.00;;;2.77;;
17151;SDS011;8691;50.828;4.700;2023-04-01T04:02:11;4.07;;;3.03;;
17151;SDS011;8691;50.828;4.700;2023-04-01T04:04:48;3.07;;;2.80;;
17151;SDS011;8691;50.828;4.700;2023-04-01T04:07:25;5.33;;;3.10;;
17151;SDS011;8691;50.828;4.700;2023-04-01T04:10:02;6.33;;;4.00;;
17151;SDS011;8691;50.828;4.700;2023-04-01T04:12:39;7.27;;;3.90;;
17151;SDS011;8691;50.828;4.700;2023-04-01T04:15:15;8.07;;;4.20;;
17151;SDS011;8691;50.828;4.700;2023-04-01T04:17:52;7.73;;;4.60;;
17151;SDS011;8691;50.828;4.700;2023-04-01T04:20:29;6.53;;;4.20;;
17151;SDS011;8691;50.828;4.700;2023-04-01T04:23:05;8.53;;;4.40;;
17151;SDS011;8691;50.828;4.700;2023-04-01T04:25:52;7.83;;;3.83;;
17151;SDS011;8691;50.828;4.700;2023-04-01T04:28:31;8.57;;;4.40;;
17151;SDS011;8691;50.828;4.700;2023-04-01T04:31:07;6.40;;;4.40;;
17151;SDS011;8691;50.828;4.700;2023-04-01T04:33:44;8.98;;;5.60;;
17151;SDS011;8691;50.828;4.700;2023-04-01T04:36:21;8.97;;;4.40;;
17151;SDS011;8691;50.828;4.700;2023-04-01T04:38:58;5.03;;;3.80;;
17151;SDS011;8691;50.828;4.700;2023-04-01T04:41:36;6.23;;;4.00;;
17151;SDS011;8691;50.828;4.700;2023-04-01T04:44:11;8.77;;;5.20;;
17151;SDS011;8691;50.828;4.700;2023-04-01T04:46:48;5.07;;;4.00;;
17151;SDS011;8691;50.828;4.700;2023-04-01T04:49:24;5.00;;;3.60;;
17151;SDS011;8691;50.828;4.700;2023-04-01T04:52:01;5.27;;;3.53;;
17151;SDS011;8691;50.828;4.700;2023-04-01T04:54:38;4.00;;;3.00;;
17151;SDS011;8691;50.828;4.700;2023-04-01T04:57:14;4.97;;;3.37;;
17151;SDS011;8691;50.828;4.700;2023-04-01T04:59:51;5.40;;;3.40;;
17151;SDS011;8691;50.828;4.700;2023-04-01T05:02:28;3.90;;;2.67;;
17151;SDS011;8691;50.828;4.700;2023-04-01T05:05:05;3.30;;;2.27;;
17151;SDS011;8691;50.828;4.700;2023-04-01T05:07:41;2.40;;;2.20;;
17151;SDS011;8691;50.828;4.700;2023-04-01T05:10:18;2.63;;;1.80;;
17151;SDS011;8691;50.828;4.700;2023-04-01T05:12:55;2.30;;;2.00;;
17151;SDS011;8691;50.828;4.700;2023-04-01T05:15:31;3.93;;;2.07;;
17151;SDS011;8691;50.828;4.700;2023-04-01T05:18:08;1.97;;;1.80;;
17151;SDS011;8691;50.828;4.700;2023-04-01T05:20:51;2.30;;;2.10;;
17151;SDS011;8691;50.828;4.700;2023-04-01T05:23:27;2.27;;;1.80;;
17151;SDS011;8691;50.828;4.700;2023-04-01T05:26:05;2.00;;;1.80;;
17151;SDS011;8691;50.828;4.700;2023-04-01T05:28:41;1.97;;;1.87;;
17151;SDS011;8691;50.828;4.700;2023-04-01T05:31:18;2.50;;;2.30;;
17151;SDS011;8691;50.828;4.700;2023-04-01T05:33:55;1.80;;;1.70;;
17151;SDS011;8691;50.828;4.700;2023-04-01T05:36:31;2.40;;;1.67;;
17151;SDS011;8691;50.828;4.700;2023-04-01T05:39:08;2.50;;;2.30;;
17151;SDS011;8691;50.828;4.700;2023-04-01T05:41:45;2.50;;;2.30;;
17151;SDS011;8691;50.828;4.700;2023-04-01T05:44:22;2.70;;;2.10;;
17151;SDS011;8691;50.828;4.700;2023-04-01T05:46:58;1.63;;;1.53;;
17151;SDS011;8691;50.828;4.700;2023-04-01T05:49:35;1.97;;;1.87;;
17151;SDS011;8691;50.828;4.700;2023-04-01T05:52:11;2.20;;;2.00;;
17151;SDS011;8691;50.828;4.700;2023-04-01T05:54:48;3.50;;;2.90;;
17151;SDS011;8691;50.828;4.700;2023-04-01T05:57:25;3.33;;;2.33;;
17151;SDS011;8691;50.828;4.700;2023-04-01T06:00:02;3.13;;;2.50;;
17151;SDS011;8691;50.828;4.700;2023-04-01T06:02:38;3.53;;;2.43;;
17151;SDS011;8691;50.828;4.700;2023-04-01T06:05:20;3.40;;;2.57;;
17151;SDS011;8691;50.828;4.700;2023-04-01T06:07:59;2.63;;;2.43;;
17151;SDS011;8691;50.828;4.700;2023-04-01T06:10:55;5.40;;;3.33;;
17151;SDS011;8691;50.828;4.700;2023-04-01T06:16:51;5.30;;;3.30;;
17151;SDS011;8691;50.828;4.700;2023-04-01T06:19:47;4.23;;;3.83;;
17151;SDS011;8691;50.828;4.700;2023-04-01T06:25:26;5.43;;;4.20;;
17151;SDS011;8691;50.828;4.700;2023-04-01T06:33:56;7.57;;;4.63;;
17151;SDS011;8691;50.828;4.700;2023-04-01T06:37:00;6.63;;;4.70;;
17151;SDS011;8691;50.828;4.700;2023-04-01T06:42:36;5.70;;;4.10;;
17151;SDS011;8691;50.828;4.700;2023-04-01T06:45:19;5.87;;;4.20;;
17151;SDS011;8691;50.828;4.700;2023-04-01T06:53:32;5.40;;;4.17;;
17151;SDS011;8691;50.828;4.700;2023-04-01T06:56:13;4.93;;;4.00;;
17151;SDS011;8691;50.828;4.700;2023-04-01T06:58:51;4.50;;;3.70;;
17151;SDS011;8691;50.828;4.700;2023-04-01T07:01:30;4.77;;;3.80;;
17151;SDS011;8691;50.828;4.700;2023-04-01T07:04:13;5.00;;;3.30;;
17151;SDS011;8691;50.828;4.700;2023-04-01T07:07:35;4.17;;;3.47;;
17151;SDS011;8691;50.828;4.700;2023-04-01T07:09:30;7.28;;;4.70;;
17151;SDS011;8691;50.828;4.700;2023-04-01T07:12:14;6.30;;;4.30;;
17151;SDS011;8691;50.828;4.700;2023-04-01T07:14:47;6.27;;;4.10;;
17151;SDS011;8691;50.828;4.700;2023-04-01T07:17:28;4.93;;;4.43;;
17151;SDS011;8691;50.828;4.700;2023-04-01T07:22:43;4.83;;;4.23;;
17151;SDS011;8691;50.828;4.700;2023-04-01T07:25:23;4.17;;;3.77;;
17151;SDS011;8691;50.828;4.700;2023-04-01T07:28:05;4.13;;;3.67;;
17151;SDS011;8691;50.828;4.700;2023-04-01T07:33:54;4.07;;;3.67;;
17151;SDS011;8691;50.828;4.700;2023-04-01T07:36:42;4.30;;;3.90;;
17151;SDS011;8691;50.828;4.700;2023-04-01T07:39:26;3.50;;;3.20;;
17151;SDS011;8691;50.828;4.700;2023-04-01T07:51:04;2.50;;;2.30;;
17151;SDS011;8691;50.828;4.700;2023-04-01T07:56:45;1.87;;;1.70;;
17151;SDS011;8691;50.828;4.700;2023-04-01T07:59:44;2.30;;;2.13;;
17151;SDS011;8691;50.828;4.700;2023-04-01T08:05:14;3.33;;;1.70;;
17151;SDS011;8691;50.828;4.700;2023-04-01T08:10:50;4.47;;;1.63;;
17151;SDS011;8691;50.828;4.700;2023-04-01T08:22:20;2.00;;;1.80;;
17151;SDS011;8691;50.828;4.700;2023-04-01T08:24:51;2.23;;;1.97;;
17151;SDS011;8691;50.828;4.700;2023-04-01T08:27:29;2.10;;;1.60;;
17151;SDS011;8691;50.828;4.700;2023-04-01T08:30:18;1.80;;;1.70;;
17151;SDS011;8691;50.828;4.700;2023-04-01T08:35:57;1.17;;;1.17;;
17151;SDS011;8691;50.828;4.700;2023-04-01T08:38:55;1.37;;;1.27;;
17151;SDS011;8691;50.828;4.700;2023-04-01T08:41:41;1.80;;;1.50;;
17151;SDS011;8691;50.828;4.700;2023-04-01T08:50:01;1.40;;;1.23;;
17151;SDS011;8691;50.828;4.700;2023-04-01T08:52:58;1.40;;;1.30;;
17151;SDS011;8691;50.828;4.700;2023-04-01T08:55:34;1.93;;;1.13;;
17151;SDS011;8691;50.828;4.700;2023-04-01T08:58:27;1.30;;;1.20;;
17151;SDS011;8691;50.828;4.700;2023-04-01T09:12:42;1.90;;;1.47;;
17151;SDS011;8691;50.828;4.700;2023-04-01T09:27:36;1.30;;;1.20;;
17151;SDS011;8691;50.828;4.700;2023-04-01T09:36:02;1.47;;;1.00;;
17151;SDS011;8691;50.828;4.700;2023-04-01T09:41:28;0.97;;;0.90;;
17151;SDS011;8691;50.828;4.700;2023-04-01T09:44:18;1.17;;;1.03;;
17151;SDS011;8691;50.828;4.700;2023-04-01T10:06:24;15.57;;;9.10;;
17151;SDS011;8691;50.828;4.700;2023-04-01T10:21:05;6.93;;;4.17;;
17151;SDS011;8691;50.828;4.700;2023-04-01T10:23:53;6.17;;;5.77;;
17151;SDS011;8691;50.828;4.700;2023-04-01T10:38:15;41.03;;;26.40;;
17151;SDS011;8691;50.828;4.700;2023-04-01T10:41:10;10.37;;;8.67;;
17151;SDS011;8691;50.828;4.700;2023-04-01T11:02:03;2.13;;;1.93;;
17151;SDS011;8691;50.828;4.700;2023-04-01T11:07:41;3.03;;;1.93;;
17151;SDS011;8691;50.828;4.700;2023-04-01T11:12:58;1.80;;;1.70;;
17151;SDS011;8691;50.828;4.700;2023-04-01T11:15:38;1.60;;;1.30;;
17151;SDS011;8691;50.828;4.700;2023-04-01T11:21:36;3.20;;;2.63;;
17151;SDS011;8691;50.828;4.700;2023-04-01T11:24:18;2.37;;;2.17;;
17151;SDS011;8691;50.828;4.700;2023-04-01T11:27:15;1.30;;;1.20;;
17151;SDS011;8691;50.828;4.700;2023-04-01T11:30:16;2.90;;;2.13;;
17151;SDS011;8691;50.828;4.700;2023-04-01T11:32:53;1.20;;;0.97;;
17151;SDS011;8691;50.828;4.700;2023-04-01T11:35:33;4.33;;;3.07;;
17151;SDS011;8691;50.828;4.700;2023-04-01T11:44:43;2.73;;;2.33;;
17151;SDS011;8691;50.828;4.700;2023-04-01T11:47:28;2.73;;;2.20;;
17151;SDS011;8691;50.828;4.700;2023-04-01T11:50:03;3.07;;;2.33;;
17151;SDS011;8691;50.828;4.700;2023-04-01T11:55:50;2.23;;;2.03;;
17151;SDS011;8691;50.828;4.700;2023-04-01T12:07:15;4.83;;;3.57;;
17151;SDS011;8691;50.828;4.700;2023-04-01T12:13:02;2.37;;;1.90;;
17151;SDS011;8691;50.828;4.700;2023-04-01T12:18:27;1.63;;;1.37;;
17151;SDS011;8691;50.828;4.700;2023-04-01T12:21:14;2.67;;;2.43;;
17151;SDS011;8691;50.828;4.700;2023-04-01T12:26:43;2.13;;;1.87;;
17151;SDS011;8691;50.828;4.700;2023-04-01T12:29:46;1.30;;;1.20;;
17151;SDS011;8691;50.828;4.700;2023-04-01T12:41:14;3.23;;;2.23;;
17151;SDS011;8691;50.828;4.700;2023-04-01T13:01:04;1.47;;;1.27;;
17151;SDS011;8691;50.828;4.700;2023-04-01T13:03:43;2.00;;;1.80;;
17151;SDS011;8691;50.828;4.700;2023-04-01T13:14:51;3.50;;;1.87;;
17151;SDS011;8691;50.828;4.700;2023-04-01T13:23:33;2.03;;;1.77;;
17151;SDS011;8691;50.828;4.700;2023-04-01T13:26:12;1.87;;;1.50;;
17151;SDS011;8691;50.828;4.700;2023-04-01T13:28:58;1.80;;;1.60;;
17151;SDS011;8691;50.828;4.700;2023-04-01T13:34:37;2.43;;;2.10;;
17151;SDS011;8691;50.828;4.700;2023-04-01T13:40:48;1.77;;;1.20;;
17151;SDS011;8691;50.828;4.700;2023-04-01T13:43:50;1.70;;;1.60;;
17151;SDS011;8691;50.828;4.700;2023-04-01T13:50:06;1.77;;;1.43;;
17151;SDS011;8691;50.828;4.700;2023-04-01T13:52:22;3.27;;;1.93;;
17151;SDS011;8691;50.828;4.700;2023-04-01T13:54:59;1.80;;;1.60;;
17151;SDS011;8691;50.828;4.700;2023-04-01T14:11:56;1.10;;;1.10;;
17151;SDS011;8691;50.828;4.700;2023-04-01T14:14:48;1.00;;;1.00;;
17151;SDS011;8691;50.828;4.700;2023-04-01T14:17:35;1.00;;;1.00;;
17151;SDS011;8691;50.828;4.700;2023-04-01T14:20:27;2.93;;;1.20;;
17151;SDS011;8691;50.828;4.700;2023-04-01T14:26:04;0.90;;;0.90;;
17151;SDS011;8691;50.828;4.700;2023-04-01T14:46:44;2.20;;;1.87;;
17151;SDS011;8691;50.828;4.700;2023-04-01T14:49:39;1.53;;;1.37;;
17151;SDS011;8691;50.828;4.700;2023-04-01T14:52:33;1.30;;;1.20;;
17151;SDS011;8691;50.828;4.700;2023-04-01T14:57:58;1.93;;;1.40;;
17151;SDS011;8691;50.828;4.700;2023-04-01T15:00:47;1.63;;;1.20;;
17151;SDS011;8691;50.828;4.700;2023-04-01T15:03:29;1.40;;;1.30;;
17151;SDS011;8691;50.828;4.700;2023-04-01T15:09:04;1.40;;;1.30;;
17151;SDS011;8691;50.828;4.700;2023-04-01T15:14:31;1.13;;;1.03;;
17151;SDS011;8691;50.828;4.700;2023-04-01T15:20:22;1.37;;;0.90;;
17151;SDS011;8691;50.828;4.700;2023-04-01T15:32:17;1.00;;;0.90;;
17151;SDS011;8691;50.828;4.700;2023-04-01T15:35:00;0.93;;;0.93;;
17151;SDS011;8691;50.828;4.700;2023-04-01T15:37:43;1.47;;;1.30;;
17151;SDS011;8691;50.828;4.700;2023-04-01T15:46:16;1.30;;;1.07;;
17151;SDS011;8691;50.828;4.700;2023-04-01T15:52:15;1.00;;;1.00;;
17151;SDS011;8691;50.828;4.700;2023-04-01T15:55:08;1.10;;;1.03;;
17151;SDS011;8691;50.828;4.700;2023-04-01T15:58:01;2.30;;;2.03;;
17151;SDS011;8691;50.828;4.700;2023-04-01T16:00:44;1.20;;;1.10;;
17151;SDS011;8691;50.828;4.700;2023-04-01T16:06:10;12.63;;;4.17;;
17151;SDS011;8691;50.828;4.700;2023-04-01T16:11:57;2.73;;;2.30;;
17151;SDS011;8691;50.828;4.700;2023-04-01T16:14:50;1.60;;;1.50;;
17151;SDS011;8691;50.828;4.700;2023-04-01T16:20:23;1.10;;;1.10;;
17151;SDS011;8691;50.828;4.700;2023-04-01T16:23:00;2.57;;;1.70;;
17151;SDS011;8691;50.828;4.700;2023-04-01T16:33:37;2.27;;;1.40;;
17151;SDS011;8691;50.828;4.700;2023-04-01T16:36:21;1.67;;;1.30;;
17151;SDS011;8691;50.828;4.700;2023-04-01T16:41:59;2.93;;;1.40;;
17151;SDS011;8691;50.828;4.700;2023-04-01T16:47:32;1.43;;;1.30;;
17151;SDS011;8691;50.828;4.700;2023-04-01T16:50:19;2.97;;;2.67;;
17151;SDS011;8691;50.828;4.700;2023-04-01T16:55:43;1.90;;;1.03;;
17151;SDS011;8691;50.828;4.700;2023-04-01T16:58:36;2.13;;;1.20;;
17151;SDS011;8691;50.828;4.700;2023-04-01T17:01:13;1.47;;;1.30;;
17151;SDS011;8691;50.828;4.700;2023-04-01T17:04:10;1.13;;;1.13;;
17151;SDS011;8691;50.828;4.700;2023-04-01T17:09:19;1.43;;;1.33;;
17151;SDS011;8691;50.828;4.700;2023-04-01T17:12:00;2.33;;;1.30;;
17151;SDS011;8691;50.828;4.700;2023-04-01T17:17:45;2.08;;;1.75;;
17151;SDS011;8691;50.828;4.700;2023-04-01T17:23:33;2.10;;;1.90;;
17151;SDS011;8691;50.828;4.700;2023-04-01T17:27:00;2.45;;;2.25;;
17151;SDS011;8691;50.828;4.700;2023-04-01T17:29:26;2.80;;;1.80;;
17151;SDS011;8691;50.828;4.700;2023-04-01T17:35:38;2.40;;;2.07;;
17151;SDS011;8691;50.828;4.700;2023-04-01T17:38:34;2.50;;;2.07;;
17151;SDS011;8691;50.828;4.700;2023-04-01T17:40:32;2.90;;;2.10;;
17151;SDS011;8691;50.828;4.700;2023-04-01T17:43:31;2.23;;;2.03;;
17151;SDS011;8691;50.828;4.700;2023-04-01T17:46:25;2.77;;;2.50;;
17151;SDS011;8691;50.828;4.700;2023-04-01T17:51:59;2.27;;;2.17;;
17151;SDS011;8691;50.828;4.700;2023-04-01T18:02:54;2.30;;;2.17;;
17151;SDS011;8691;50.828;4.700;2023-04-01T18:05:48;2.77;;;2.17;;
17151;SDS011;8691;50.828;4.700;2023-04-01T18:08:31;2.70;;;2.50;;
17151;SDS011;8691;50.828;4.700;2023-04-01T18:16:38;2.73;;;2.53;;
17151;SDS011;8691;50.828;4.700;2023-04-01T18:22:15;3.10;;;2.80;;
17151;SDS011;8691;50.828;4.700;2023-04-01T18:30:33;3.83;;;3.10;;
17151;SDS011;8691;50.828;4.700;2023-04-01T18:33:28;3.20;;;2.90;;
17151;SDS011;8691;50.828;4.700;2023-04-01T18:39:00;3.20;;;2.60;;
17151;SDS011;8691;50.828;4.700;2023-04-01T18:41:51;2.57;;;2.37;;
17151;SDS011;8691;50.828;4.700;2023-04-01T18:44:48;3.80;;;3.50;;
17151;SDS011;8691;50.828;4.700;2023-04-01T18:47:40;3.10;;;2.90;;
17151;SDS011;8691;50.828;4.700;2023-04-01T18:50:26;3.77;;;3.27;;
17151;SDS011;8691;50.828;4.700;2023-04-01T18:55:49;3.60;;;3.30;;
17151;SDS011;8691;50.828;4.700;2023-04-01T18:58:37;4.93;;;4.47;;
17151;SDS011;8691;50.828;4.700;2023-04-01T19:06:57;4.93;;;4.53;;
17151;SDS011;8691;50.828;4.700;2023-04-01T19:09:46;4.87;;;4.47;;
17151;SDS011;8691;50.828;4.700;2023-04-01T19:15:08;7.10;;;6.50;;
17151;SDS011;8691;50.828;4.700;2023-04-01T19:17:45;6.13;;;5.63;;
17151;SDS011;8691;50.828;4.700;2023-04-01T19:26:05;7.35;;;6.65;;
17151;SDS011;8691;50.828;4.700;2023-04-01T19:28:46;5.57;;;5.10;;
17151;SDS011;8691;50.828;4.700;2023-04-01T19:40:16;7.40;;;6.60;;
17151;SDS011;8691;50.828;4.700;2023-04-01T19:51:17;5.90;;;5.40;;
17151;SDS011;8691;50.828;4.700;2023-04-01T19:56:39;5.57;;;5.07;;
17151;SDS011;8691;50.828;4.700;2023-04-01T19:59:30;5.67;;;5.17;;
17151;SDS011;8691;50.828;4.700;2023-04-01T20:05:25;8.43;;;6.33;;
17151;SDS011;8691;50.828;4.700;2023-04-01T20:08:00;6.00;;;5.40;;
17151;SDS011;8691;50.828;4.700;2023-04-01T20:10:46;5.80;;;5.30;;
17151;SDS011;8691;50.828;4.700;2023-04-01T20:13:31;6.13;;;5.53;;
17151;SDS011;8691;50.828;4.700;2023-04-01T20:16:06;8.53;;;7.53;;
17151;SDS011;8691;50.828;4.700;2023-04-01T20:18:49;6.20;;;5.60;;
17151;SDS011;8691;50.828;4.700;2023-04-01T20:27:15;6.93;;;5.83;;
17151;SDS011;8691;50.828;4.700;2023-04-01T20:46:45;10.20;;;6.20;;
17151;SDS011;8691;50.828;4.700;2023-04-01T20:52:29;6.60;;;6.00;;
17151;SDS011;8691;50.828;4.700;2023-04-01T21:03:24;7.90;;;6.80;;
17151;SDS011;8691;50.828;4.700;2023-04-01T21:22:59;11.00;;;9.63;;
17151;SDS011;8691;50.828;4.700;2023-04-01T21:25:41;17.10;;;14.23;;
17151;SDS011;8691;50.828;4.700;2023-04-01T21:40:11;12.40;;;9.93;;
17151;SDS011;8691;50.828;4.700;2023-04-01T21:51:33;12.13;;;10.03;;
17151;SDS011;8691;50.828;4.700;2023-04-01T21:54:27;10.60;;;9.50;;
17151;SDS011;8691;50.828;4.700;2023-04-01T22:00:14;11.73;;;10.07;;
17151;SDS011;8691;50.828;4.700;2023-04-01T22:05:58;13.60;;;12.20;;
17151;SDS011;8691;50.828;4.700;2023-04-01T22:11:23;8.50;;;7.70;;
17151;SDS011;8691;50.828;4.700;2023-04-01T22:14:09;8.13;;;7.33;;
17151;SDS011;8691;50.828;4.700;2023-04-01T22:19:35;9.00;;;8.10;;
17151;SDS011;8691;50.828;4.700;2023-04-01T22:25:16;9.70;;;8.70;;
17151;SDS011;8691;50.828;4.700;2023-04-01T22:27:52;13.37;;;11.97;;
17151;SDS011;8691;50.828;4.700;2023-04-01T22:30:35;12.53;;;11.27;;
17151;SDS011;8691;50.828;4.700;2023-04-01T22:33:15;16.27;;;14.87;;
17151;SDS011;8691;50.828;4.700;2023-04-01T22:41:59;14.80;;;12.97;;
17151;SDS011;8691;50.828;4.700;2023-04-01T22:47:17;13.80;;;12.40;;
17151;SDS011;8691;50.828;4.700;2023-04-01T22:49:52;12.27;;;11.07;;
17151;SDS011;8691;50.828;4.700;2023-04-01T22:52:35;13.87;;;12.57;;
17151;SDS011;8691;50.828;4.700;2023-04-01T22:55:13;13.27;;;11.97;;
17151;SDS011;8691;50.828;4.700;2023-04-01T22:57:50;14.67;;;13.17;;
17151;SDS011;8691;50.828;4.700;2023-04-01T23:03:19;14.57;;;13.17;;
17151;SDS011;8691;50.828;4.700;2023-04-01T23:05:59;14.67;;;13.17;;
17151;SDS011;8691;50.828;4.700;2023-04-01T23:11:35;12.90;;;11.70;;
17151;SDS011;8691;50.828;4.700;2023-04-01T23:22:32;16.17;;;11.93;;
17151;SDS011;8691;50.828;4.700;2023-04-01T23:28:32;15.13;;;13.83;;
17151;SDS011;8691;50.828;4.700;2023-04-01T23:33:30;11.63;;;10.40;;
17151;SDS011;8691;50.828;4.700;2023-04-01T23:36:12;11.77;;;10.77;;
17151;SDS011;8691;50.828;4.700;2023-04-01T23:38:42;16.00;;;14.60;;
17151;SDS011;8691;50.828;4.700;2023-04-01T23:41:23;13.93;;;12.63;;
17151;SDS011;8691;50.828;4.700;2023-04-01T23:44:02;13.23;;;12.03;;
17151;SDS011;8691;50.828;4.700;2023-04-01T23:46:38;13.40;;;12.20;;
17151;SDS011;8691;50.828;4.700;2023-04-01T23:49:19;11.93;;;10.73;;
17151;SDS011;8691;50.828;4.700;2023-04-01T23:55:03;11.77;;;10.67;;
17151;SDS011;8691;50.828;4.700;2023-04-01T23:57:38;10.33;;;9.00;;
